Wetterstation Vordersexau
Wetterdaten: Woche 23.10.17 - 29.10.17 (KW43)
Datum Zeit Temp. A. Feuchte A. Luftdruck Regen Wind Richtung Taupunkt Windchill Windben
23.10.2017 00:00 7,8 C 83 % 1018,1 hPa 0,5 l/m 0,0 km/h S-SO 5,1 C 7,8 C 0,0 km/h
23.10.2017 01:00 7,6 C 83 % 1018,1 hPa 0,0 l/m 4,5 km/h S 4,9 C 7,6 C 2,5 km/h
23.10.2017 02:00 7,6 C 82 % 1017,9 hPa 0,5 l/m 0,0 km/h W 4,7 C 7,6 C 0,0 km/h
23.10.2017 03:00 7,3 C 82 % 1018,3 hPa 0,5 l/m 0,0 km/h S-SW 4,4 C 7,3 C 0,0 km/h
23.10.2017 04:00 7,4 C 81 % 1018,2 hPa 0,0 l/m 0,0 km/h SW 4,4 C 7,4 C 0,0 km/h
23.10.2017 05:00 7,6 C 81 % 1018,4 hPa 0,0 l/m 0,0 km/h W-SW 4,6 C 7,6 C 0,0 km/h
23.10.2017 06:00 7,7 C 82 % 1018,7 hPa 0,5 l/m 0,0 km/h SW 4,8 C 7,7 C 0,0 km/h
23.10.2017 07:00 7,9 C 82 % 1019,0 hPa 0,0 l/m 0,0 km/h SW 5,0 C 7,9 C 0,0 km/h
23.10.2017 08:00 7,9 C 82 % 1019,5 hPa 0,0 l/m 0,0 km/h S-SO 5,0 C 7,9 C 0,0 km/h
23.10.2017 09:00 8,5 C 81 % 1020,1 hPa 0,0 l/m 0,0 km/h NO 5,4 C 8,5 C 0,0 km/h
23.10.2017 10:00 8,7 C 82 % 1020,5 hPa 1,0 l/m 0,0 km/h S-SW 5,8 C 8,7 C 0,0 km/h
23.10.2017 11:00 9,6 C 83 % 1020,5 hPa 0,0 l/m 0,0 km/h S-SW 6,9 C 9,6 C 0,0 km/h
23.10.2017 12:00 12,1 C 81 % 1020,9 hPa 0,0 l/m 0,0 km/h W 8,9 C 12,1 C 0,0 km/h
23.10.2017 13:00 14,8 C 73 % 1020,6 hPa 0,0 l/m 0,0 km/h W-SW 10,0 C 14,8 C 0,0 km/h
23.10.2017 14:00 13,9 C 68 % 1020,3 hPa 0,0 l/m 0,0 km/h W 8,1 C 13,9 C 0,0 km/h
23.10.2017 15:00 12,3 C 69 % 1020,8 hPa 0,0 l/m 0,0 km/h W 6,8 C 12,3 C 0,0 km/h
23.10.2017 16:00 11,5 C 75 % 1021,1 hPa 0,0 l/m 0,0 km/h S-SW 7,2 C 11,5 C 0,0 km/h
23.10.2017 17:00 10,3 C 79 % 1021,5 hPa 0,0 l/m 0,0 km/h S-SO 6,8 C 10,3 C 0,0 km/h
23.10.2017 18:00 9,9 C 83 % 1021,8 hPa 0,0 l/m 0,0 km/h SW 7,2 C 9,9 C 0,0 km/h
23.10.2017 19:00 9,8 C 83 % 1022,2 hPa 0,0 l/m 5,2 km/h S 7,1 C 9,8 C 2,9 km/h
23.10.2017 20:00 9,6 C 83 % 1022,4 hPa 0,0 l/m 0,0 km/h S-SO 6,9 C 9,6 C 0,0 km/h
23.10.2017 21:00 9,6 C 83 % 1022,7 hPa 0,5 l/m 0,0 km/h O-SO 6,9 C 9,6 C 0,0 km/h
23.10.2017 22:00 9,8 C 83 % 1023,2 hPa 0,0 l/m 0,0 km/h S-SO 7,1 C 9,8 C 0,0 km/h
23.10.2017 23:00 9,6 C 81 % 1023,3 hPa 0,5 l/m 0,0 km/h S-SO 6,5 C 9,6 C 0,0 km/h
24.10.2017 00:00 9,6 C 81 % 1023,3 hPa 0,0 l/m 0,0 km/h S-SO 6,5 C 9,6 C 0,0 km/h
24.10.2017 01:00 9,9 C 81 % 1023,3 hPa 0,0 l/m 0,0 km/h S 6,8 C 9,9 C 0,0 km/h
24.10.2017 02:00 9,8 C 81 % 1023,1 hPa 0,0 l/m 0,0 km/h S-SW 6,7 C 9,8 C 0,0 km/h
24.10.2017 03:00 9,6 C 81 % 1023,4 hPa 0,0 l/m 0,0 km/h O-SO 6,5 C 9,6 C 0,0 km/h
24.10.2017 04:00 9,4 C 80 % 1023,1 hPa 0,0 l/m 0,0 km/h O-SO 6,1 C 9,4 C 0,0 km/h
24.10.2017 05:00 9,4 C 79 % 1023,4 hPa 0,0 l/m 0,0 km/h O-SO 5,9 C 9,4 C 0,0 km/h
24.10.2017 06:00 9,2 C 78 % 1023,3 hPa 0,0 l/m 0,0 km/h O-SO 5,6 C 9,2 C 0,0 km/h
24.10.2017 07:00 8,9 C 77 % 1023,3 hPa 0,0 l/m 0,0 km/h O-SO 5,1 C 8,9 C 0,0 km/h
24.10.2017 08:00 9,5 C 74 % 1023,5 hPa 0,0 l/m 0,0 km/h O-SO 5,1 C 9,5 C 0,0 km/h
24.10.2017 09:00 13,2 C 77 % 1023,8 hPa 0,0 l/m 1,3 km/h O-SO 9,3 C 13,2 C 0,7 km/h
24.10.2017 10:00 20,9 C 72 % 1023,8 hPa 0,0 l/m 0,0 km/h W 15,7 C 20,9 C 0,0 km/h
24.10.2017 11:00 21,2 C 61 % 1023,8 hPa 0,0 l/m 0,0 km/h O-SO 13,4 C 21,2 C 0,0 km/h
24.10.2017 12:00 19,6 C 61 % 1023,7 hPa 0,0 l/m 12,3 km/h W 11,9 C 17,5 C 6,8 km/h
24.10.2017 13:00 19,8 C 58 % 1023,0 hPa 0,0 l/m 0,0 km/h W 11,3 C 19,8 C 0,0 km/h
24.10.2017 14:00 22,1 C 52 % 1022,5 hPa 0,0 l/m 0,0 km/h W 11,8 C 22,1 C 0,0 km/h
24.10.2017 15:00 18,9 C 59 % 1022,3 hPa 0,0 l/m 0,0 km/h W 10,7 C 18,9 C 0,0 km/h
24.10.2017 16:00 18,8 C 60 % 1022,3 hPa 0,0 l/m 0,0 km/h W 10,9 C 18,8 C 0,0 km/h
24.10.2017 17:00 16,7 C 68 % 1022,4 hPa 0,0 l/m 0,0 km/h W 10,8 C 16,7 C 0,0 km/h
24.10.2017 18:00 12,3 C 78 % 1022,7 hPa 0,0 l/m 0,0 km/h SO 8,6 C 12,3 C 0,0 km/h
24.10.2017 19:00 10,9 C 82 % 1022,8 hPa 0,0 l/m 0,0 km/h O-SO 7,9 C 10,9 C 0,0 km/h
24.10.2017 20:00 10,2 C 83 % 1022,8 hPa 0,0 l/m 0,0 km/h O-SO 7,4 C 10,2 C 0,0 km/h
24.10.2017 21:00 10,4 C 83 % 1022,8 hPa 0,0 l/m 0,0 km/h O-SO 7,6 C 10,4 C 0,0 km/h
24.10.2017 22:00 10,7 C 82 % 1023,1 hPa 0,0 l/m 0,0 km/h SO 7,8 C 10,7 C 0,0 km/h
24.10.2017 23:00 10,2 C 82 % 1022,8 hPa 0,0 l/m 0,0 km/h O-SO 7,3 C 10,2 C 0,0 km/h
25.10.2017 00:00 10,2 C 82 % 1022,5 hPa 0,0 l/m 0,0 km/h O-SO 7,3 C 10,2 C 0,0 km/h
25.10.2017 01:00 10,2 C 81 % 1022,5 hPa 0,0 l/m 0,0 km/h O-SO 7,1 C 10,2 C 0,0 km/h
25.10.2017 02:00 9,3 C 80 % 1022,0 hPa 0,0 l/m 0,0 km/h O 6,0 C 9,3 C 0,0 km/h
25.10.2017 03:00 8,8 C 79 % 1022,0 hPa 0,0 l/m 0,0 km/h O-SO 5,4 C 8,8 C 0,0 km/h
25.10.2017 04:00 8,6 C 78 % 1021,8 hPa 0,0 l/m 0,0 km/h O-SO 5,0 C 8,6 C 0,0 km/h
25.10.2017 05:00 8,9 C 77 % 1021,6 hPa 0,0 l/m 0,0 km/h O-SO 5,1 C 8,9 C 0,0 km/h
25.10.2017 06:00 8,7 C 76 % 1021,3 hPa 0,0 l/m 0,0 km/h O 4,7 C 8,7 C 0,0 km/h
25.10.2017 07:00 8,4 C 76 % 1021,3 hPa 0,0 l/m 0,0 km/h O 4,4 C 8,4 C 0,0 km/h
25.10.2017 08:00 8,4 C 75 % 1021,8 hPa 0,0 l/m 0,0 km/h O 4,2 C 8,4 C 0,0 km/h
25.10.2017 09:00 11,6 C 71 % 1022,3 hPa 0,0 l/m 0,0 km/h O-NO 6,5 C 11,6 C 0,0 km/h
25.10.2017 10:00 15,2 C 81 % 1022,4 hPa 0,0 l/m 0,0 km/h NO 12,0 C 15,2 C 0,0 km/h
25.10.2017 11:00 19,1 C 72 % 1022,3 hPa 0,0 l/m 0,0 km/h N-NO 13,9 C 19,1 C 0,0 km/h
25.10.2017 12:00 20,8 C 66 % 1022,3 hPa 0,0 l/m 0,0 km/h SO 14,2 C 20,8 C 0,0 km/h
25.10.2017 13:00 20,8 C 63 % 1021,7 hPa 0,0 l/m 0,0 km/h SO 13,5 C 20,8 C 0,0 km/h
25.10.2017 14:00 23,8 C 56 % 1021,5 hPa 0,0 l/m 0,0 km/h O-NO 14,5 C 23,8 C 0,0 km/h
25.10.2017 15:00 23,2 C 61 % 1021,1 hPa 0,0 l/m 0,0 km/h O 15,3 C 23,2 C 0,0 km/h
25.10.2017 16:00 23,0 C 64 % 1021,1 hPa 0,0 l/m 0,0 km/h O-NO 15,8 C 23,0 C 0,0 km/h
25.10.2017 17:00 19,9 C 66 % 1021,3 hPa 0,0 l/m 0,0 km/h O-NO 13,4 C 19,9 C 0,0 km/h
25.10.2017 18:00 15,4 C 78 % 1021,6 hPa 0,0 l/m 0,0 km/h O-SO 11,6 C 15,4 C 0,0 km/h
25.10.2017 19:00 13,6 C 82 % 1021,8 hPa 0,0 l/m 0,0 km/h O 10,6 C 13,6 C 0,0 km/h
25.10.2017 20:00 12,1 C 83 % 1022,2 hPa 0,0 l/m 0,0 km/h O 9,3 C 12,1 C 0,0 km/h
25.10.2017 21:00 11,4 C 83 % 1022,5 hPa 0,0 l/m 0,0 km/h O 8,6 C 11,4 C 0,0 km/h
25.10.2017 22:00 10,6 C 83 % 1023,2 hPa 0,0 l/m 0,0 km/h O 7,8 C 10,6 C 0,0 km/h
25.10.2017 23:00 9,8 C 82 % 1023,3 hPa 0,0 l/m 0,0 km/h O 6,9 C 9,8 C 0,0 km/h
26.10.2017 00:00 9,6 C 81 % 1023,2 hPa 0,0 l/m 0,0 km/h O 6,5 C 9,6 C 0,0 km/h
26.10.2017 01:00 9,1 C 80 % 1023,7 hPa 0,0 l/m 0,0 km/h O 5,8 C 9,1 C 0,0 km/h
26.10.2017 02:00 8,9 C 78 % 1023,5 hPa 0,0 l/m 0,0 km/h O 5,3 C 8,9 C 0,0 km/h
26.10.2017 03:00 8,4 C 78 % 1023,2 hPa 0,0 l/m 0,0 km/h O-NO 4,8 C 8,4 C 0,0 km/h
26.10.2017 04:00 7,2 C 79 % 1023,6 hPa 0,0 l/m 0,0 km/h O-NO 3,8 C 7,2 C 0,0 km/h
26.10.2017 05:00 7,4 C 77 % 1023,6 hPa 0,0 l/m 0,0 km/h O 3,6 C 7,4 C 0,0 km/h
26.10.2017 06:00 7,8 C 76 % 1023,4 hPa 0,0 l/m 0,0 km/h SO 3,8 C 7,8 C 0,0 km/h
26.10.2017 07:00 7,4 C 75 % 1023,1 hPa 0,0 l/m 0,0 km/h O-NO 3,3 C 7,4 C 0,0 km/h
26.10.2017 08:00 8,4 C 73 % 1023,6 hPa 0,0 l/m 0,0 km/h O 3,8 C 8,4 C 0,0 km/h
26.10.2017 09:00 10,4 C 70 % 1023,7 hPa 0,0 l/m 0,0 km/h O 5,2 C 10,4 C 0,0 km/h
26.10.2017 10:00 11,8 C 70 % 1023,5 hPa 0,0 l/m 0,0 km/h N 6,5 C 11,8 C 0,0 km/h
26.10.2017 11:00 18,8 C 80 % 1023,2 hPa 0,0 l/m 0,0 km/h W-NW 15,3 C 18,8 C 0,0 km/h
26.10.2017 12:00 20,4 C 71 % 1023,0 hPa 0,0 l/m 0,0 km/h W-SW 15,0 C 20,4 C 0,0 km/h
26.10.2017 13:00 21,3 C 67 % 1022,7 hPa 0,0 l/m 0,0 km/h W 14,9 C 21,3 C 0,0 km/h
26.10.2017 14:00 25,3 C 58 % 1021,7 hPa 0,0 l/m 0,0 km/h N 16,4 C 25,3 C 0,0 km/h
26.10.2017 15:00 27,2 C 49 % 1021,6 hPa 0,0 l/m 0,0 km/h N 15,5 C 27,2 C 0,0 km/h
26.10.2017 16:00 27,9 C 49 % 1021,4 hPa 0,0 l/m 0,0 km/h N 16,2 C 27,9 C 0,0 km/h
26.10.2017 17:00 23,9 C 54 % 1021,3 hPa 0,0 l/m 0,0 km/h N 14,0 C 23,9 C 0,0 km/h
26.10.2017 18:00 14,9 C 75 % 1021,2 hPa 0,0 l/m 0,0 km/h N 10,5 C 14,9 C 0,0 km/h
26.10.2017 19:00 13,0 C 82 % 1021,5 hPa 0,0 l/m 0,0 km/h O 10,0 C 13,0 C 0,0 km/h
26.10.2017 20:00 12,4 C 83 % 1021,3 hPa 0,0 l/m 0,0 km/h O 9,6 C 12,4 C 0,0 km/h
26.10.2017 21:00 11,5 C 83 % 1021,0 hPa 0,0 l/m 0,0 km/h O 8,7 C 11,5 C 0,0 km/h
26.10.2017 22:00 11,1 C 82 % 1021,1 hPa 0,0 l/m 0,0 km/h O 8,1 C 11,1 C 0,0 km/h
26.10.2017 23:00 11,1 C 80 % 1020,8 hPa 0,0 l/m 0,0 km/h O 7,8 C 11,1 C 0,0 km/h
27.10.2017 00:00 10,6 C 79 % 1021,0 hPa 0,0 l/m 0,0 km/h O 7,1 C 10,6 C 0,0 km/h
27.10.2017 01:00 10,6 C 78 % 1020,6 hPa 0,0 l/m 0,0 km/h O-SO 6,9 C 10,6 C 0,0 km/h
27.10.2017 02:00 10,5 C 77 % 1019,6 hPa 0,0 l/m 0,0 km/h SO 6,6 C 10,5 C 0,0 km/h
27.10.2017 03:00 10,5 C 75 % 1019,6 hPa 0,0 l/m 0,0 km/h SO 6,3 C 10,5 C 0,0 km/h
27.10.2017 04:00 11,2 C 73 % 1019,5 hPa 0,0 l/m 0,0 km/h SO 6,5 C 11,2 C 0,0 km/h
27.10.2017 05:00 11,8 C 73 % 1019,6 hPa 0,0 l/m 0,0 km/h O-SO 7,1 C 11,8 C 0,0 km/h
27.10.2017 06:00 12,1 C 73 % 1019,8 hPa 0,0 l/m 0,0 km/h S-SO 7,4 C 12,1 C 0,0 km/h
27.10.2017 07:00 11,9 C 77 % 1020,4 hPa 0,0 l/m 0,0 km/h S 8,0 C 11,9 C 0,0 km/h
27.10.2017 08:00 11,3 C 77 % 1021,3 hPa 0,0 l/m 0,0 km/h S 7,4 C 11,3 C 0,0 km/h
27.10.2017 09:00 11,8 C 78 % 1022,5 hPa 0,5 l/m 0,0 km/h S 8,1 C 11,8 C 0,0 km/h
27.10.2017 10:00 12,1 C 78 % 1023,2 hPa 0,0 l/m 0,0 km/h W-NW 8,4 C 12,1 C 0,0 km/h
27.10.2017 11:00 11,7 C 79 % 1024,3 hPa 0,5 l/m 0,0 km/h N 8,2 C 11,7 C 0,0 km/h
27.10.2017 12:00 14,2 C 83 % 1024,7 hPa 0,0 l/m 0,0 km/h N 11,4 C 14,2 C 0,0 km/h
27.10.2017 13:00 14,2 C 74 % 1025,2 hPa 0,0 l/m 0,0 km/h N 9,6 C 14,2 C 0,0 km/h
27.10.2017 14:00 16,1 C 65 % 1025,2 hPa 0,0 l/m 0,0 km/h W 9,5 C 16,1 C 0,0 km/h
27.10.2017 15:00 21,4 C 48 % 1025,1 hPa 0,0 l/m 4,5 km/h N-NW 9,9 C 21,4 C 2,5 km/h
27.10.2017 16:00 18,9 C 51 % 1025,2 hPa 0,5 l/m 11,0 km/h N 8,5 C 17,1 C 6,1 km/h
27.10.2017 17:00 14,8 C 58 % 1025,9 hPa 0,0 l/m 0,0 km/h O-NO 6,6 C 14,8 C 0,0 km/h
27.10.2017 18:00 9,3 C 72 % 1026,7 hPa 0,0 l/m 0,0 km/h N-NO 4,5 C 9,3 C 0,0 km/h
27.10.2017 19:00 8,3 C 79 % 1027,8 hPa 0,0 l/m 0,0 km/h O 4,9 C 8,3 C 0,0 km/h
27.10.2017 20:00 7,9 C 81 % 1027,9 hPa 0,0 l/m 0,0 km/h O-SO 4,8 C 7,9 C 0,0 km/h
27.10.2017 21:00 5,9 C 83 % 1028,0 hPa 0,0 l/m 0,0 km/h O-SO 3,2 C 5,9 C 0,0 km/h
27.10.2017 22:00 6,1 C 84 % 1028,2 hPa 0,0 l/m 0,0 km/h O-SO 3,6 C 6,1 C 0,0 km/h
27.10.2017 23:00 5,3 C 83 % 1028,2 hPa 0,0 l/m 0,0 km/h O-SO 2,7 C 5,3 C 0,0 km/h
28.10.2017 00:00 4,7 C 83 % 1027,7 hPa 0,0 l/m 0,0 km/h O 2,1 C 4,7 C 0,0 km/h
28.10.2017 01:00 3,8 C 83 % 1027,5 hPa 0,0 l/m 0,0 km/h O-SO 1,2 C 3,8 C 0,0 km/h
28.10.2017 02:00 3,8 C 82 % 1026,9 hPa 0,0 l/m 0,0 km/h O-SO 1,0 C 3,8 C 0,0 km/h
28.10.2017 03:00 3,3 C 82 % 1026,3 hPa 0,0 l/m 0,0 km/h O-SO 0,5 C 3,3 C 0,0 km/h
28.10.2017 04:00 3,1 C 81 % 1026,3 hPa 0,0 l/m 0,0 km/h O-SO 0,2 C 3,1 C 0,0 km/h
28.10.2017 05:00 3,4 C 81 % 1026,4 hPa 0,0 l/m 0,0 km/h O-SO 0,5 C 3,4 C 0,0 km/h
28.10.2017 06:00 3,5 C 79 % 1025,6 hPa 0,0 l/m 0,0 km/h O-SO 0,2 C 3,5 C 0,0 km/h
28.10.2017 07:00 2,7 C 80 % 1025,7 hPa 0,0 l/m 0,0 km/h O-SO -0,4 C 2,7 C 0,0 km/h
28.10.2017 08:00 3,1 C 78 % 1025,7 hPa 0,0 l/m 0,0 km/h O-SO -0,4 C 3,1 C 0,0 km/h
28.10.2017 09:00 5,2 C 77 % 1026,2 hPa 0,0 l/m 0,0 km/h SO 1,5 C 5,2 C 0,0 km/h
28.10.2017 10:00 8,4 C 70 % 1025,4 hPa 0,0 l/m 0,0 km/h W-SW 3,3 C 8,4 C 0,0 km/h
28.10.2017 11:00 12,3 C 79 % 1024,7 hPa 0,0 l/m 0,0 km/h S-SW 8,8 C 12,3 C 0,0 km/h
28.10.2017 12:00 12,3 C 72 % 1024,5 hPa 0,0 l/m 0,0 km/h W-SW 7,4 C 12,3 C 0,0 km/h
28.10.2017 13:00 13,1 C 70 % 1023,7 hPa 0,0 l/m 0,0 km/h W-SW 7,8 C 13,1 C 0,0 km/h
28.10.2017 14:00 13,3 C 67 % 1022,9 hPa 0,0 l/m 0,0 km/h W 7,3 C 13,3 C 0,0 km/h
28.10.2017 15:00 13,4 C 62 % 1022,3 hPa 0,0 l/m 0,0 km/h NW 6,3 C 13,4 C 0,0 km/h
28.10.2017 16:00 11,5 C 66 % 1021,5 hPa 0,0 l/m 0,0 km/h W-SW 5,4 C 11,5 C 0,0 km/h
28.10.2017 17:00 10,0 C 68 % 1021,5 hPa 0,0 l/m 0,0 km/h W-SW 4,4 C 10,0 C 0,0 km/h
28.10.2017 18:00 8,7 C 73 % 1021,8 hPa 0,0 l/m 3,2 km/h S 4,1 C 8,7 C 1,8 km/h
28.10.2017 19:00 8,5 C 72 % 1021,5 hPa 0,0 l/m 7,8 km/h W-SW 3,7 C 7,4 C 4,3 km/h
28.10.2017 20:00 8,9 C 73 % 1021,4 hPa 0,0 l/m 0,6 km/h W 4,3 C 8,9 C 0,4 km/h
28.10.2017 21:00 9,3 C 71 % 1020,6 hPa 0,0 l/m 12,3 km/h SW 4,3 C 5,6 C 6,8 km/h
28.10.2017 22:00 9,3 C 72 % 1020,3 hPa 0,0 l/m 5,8 km/h W-SW 4,5 C 9,3 C 3,2 km/h
28.10.2017 23:00 9,2 C 73 % 1019,0 hPa 0,0 l/m 23,3 km/h S-SW 4,6 C 1,2 C 13,0 km/h
29.10.2017 00:00 9,3 C 73 % 1018,4 hPa 0,0 l/m 8,4 km/h S 4,7 C 7,8 C 4,7 km/h
29.10.2017 01:00 9,4 C 74 % 1017,9 hPa 0,0 l/m 17,5 km/h SW 5,0 C 3,4 C 9,7 km/h
29.10.2017 02:00 9,6 C 73 % 1016,6 hPa 0,0 l/m 22,0 km/h SW 5,0 C 2,1 C 12,2 km/h
29.10.2017 03:00 9,6 C 75 % 1015,3 hPa 0,0 l/m 15,6 km/h S 5,4 C 4,4 C 8,6 km/h
29.10.2017 04:00 9,8 C 76 % 1014,6 hPa 0,0 l/m 27,9 km/h S-SO 5,8 C 0,8 C 15,5 km/h
29.10.2017 05:00 9,5 C 79 % 1013,5 hPa 0,0 l/m 23,3 km/h SW 6,0 C 1,6 C 13,0 km/h
29.10.2017 06:00 9,4 C 80 % 1013,3 hPa 0,0 l/m 29,2 km/h SW 6,1 C -0,0 C 16,2 km/h
29.10.2017 07:00 9,4 C 81 % 1013,5 hPa 0,0 l/m 5,2 km/h S 6,3 C 9,4 C 2,9 km/h
29.10.2017 08:00 9,3 C 82 % 1013,6 hPa 0,0 l/m 22,0 km/h S-SW 6,4 C 1,7 C 12,2 km/h
29.10.2017 09:00 9,8 C 81 % 1013,1 hPa 0,0 l/m 3,2 km/h SW 6,7 C 9,8 C 1,8 km/h
29.10.2017 10:00 10,1 C 81 % 1012,9 hPa 0,0 l/m 20,1 km/h W-SW 7,0 C 3,4 C 11,2 km/h
29.10.2017 11:00 10,4 C 81 % 1013,2 hPa 0,0 l/m 24,0 km/h S-SO 7,3 C 2,6 C 13,3 km/h
29.10.2017 12:00 10,4 C 81 % 1012,6 hPa 0,0 l/m 36,3 km/h NW 7,3 C 0,1 C 20,2 km/h
29.10.2017 13:00 9,6 C 83 % 1013,6 hPa 0,5 l/m 0,0 km/h W-SW 6,9 C 9,6 C 0,0 km/h
29.10.2017 14:00 9,7 C 81 % 1014,2 hPa 5,2 l/m 3,2 km/h S-SW 6,6 C 9,7 C 1,8 km/h
29.10.2017 15:00 9,9 C 79 % 1014,8 hPa 1,0 l/m 0,0 km/h S 6,4 C 9,9 C 0,0 km/h
29.10.2017 16:00 9,5 C 80 % 1015,4 hPa 0,0 l/m 0,0 km/h S-SO 6,2 C 9,5 C 0,0 km/h
29.10.2017 17:00 8,9 C 80 % 1015,8 hPa 0,0 l/m 0,0 km/h S-SO 5,6 C 8,9 C 0,0 km/h
29.10.2017 18:00 6,8 C 79 % 1016,7 hPa 0,0 l/m 0,0 km/h S-SO 3,4 C 6,8 C 0,0 km/h
29.10.2017 19:00 6,4 C 79 % 1017,1 hPa 0,0 l/m 0,0 km/h S-SO 3,0 C 6,4 C 0,0 km/h
29.10.2017 20:00 5,7 C 78 % 1017,7 hPa 0,0 l/m 0,0 km/h S-SO 2,2 C 5,7 C 0,0 km/h
29.10.2017 21:00 4,8 C 78 % 1018,7 hPa 0,0 l/m 0,0 km/h S-SO 1,3 C 4,8 C 0,0 km/h
29.10.2017 22:00 3,9 C 78 % 1018,4 hPa 0,0 l/m 0,0 km/h S-SO 0,4 C 3,9 C 0,0 km/h
29.10.2017 23:00 3,0 C 78 % 1018,7 hPa 0,0 l/m 0,0 km/h O-SO -0,5 C 3,0 C 0,0 km/h
Min-Datum _ 28.10.17 27.10.17 29.10.17 - 23.10.17 - 29.10.17 29.10.17 23.10.17
_ Min-Zeit 07:53 15:53 12:53 - 00:53 - 23:53 06:53 00:53
Minimum _ 2,7 C 48 % 1012,6 hPa - 0,0 km/h - -0,5 C -0,0 C 0,0 km/h
Max-Datum _ 26.10.17 27.10.17 27.10.17 29.10.17 29.10.17 - 26.10.17 26.10.17 29.10.17
_ Max-Zeit 16:53 22:53 22:53 14:53 12:53 - 14:53 16:53 12:53
Maximum _ 27,9 C 84 % 1028,2 hPa 5,2 l/m 36,3 km/h
NW
- 16,4 C 27,9 C 20,2 km/h
NW
Durchschnitt _ 11,2 C 76 % 1021,6 hPa #12,4 l/m 2,1 km/h O-SO 6,9 C 10,6 C 1,2 km/h
www.sexauwetter.de